createdAt,value
2023-12-09T00:01:59.081Z,99.90
2023-12-09T00:04:26.909Z,99.90
2023-12-09T00:06:54.753Z,99.90
2023-12-09T00:09:22.450Z,99.90
2023-12-09T00:11:53.623Z,99.90
2023-12-09T00:14:31.306Z,99.90
2023-12-09T00:17:02.513Z,99.90
2023-12-09T00:19:30.875Z,99.90
2023-12-09T00:21:58.656Z,99.90
2023-12-09T00:24:26.328Z,99.90
2023-12-09T00:26:54.007Z,99.90
2023-12-09T00:29:21.647Z,99.90
2023-12-09T00:31:49.348Z,99.90
2023-12-09T00:34:16.905Z,99.90
2023-12-09T00:37:22.216Z,99.90
2023-12-09T00:39:49.752Z,99.90
2023-12-09T00:42:17.434Z,99.90
2023-12-09T00:44:45.125Z,99.90
2023-12-09T00:47:12.891Z,99.90
2023-12-09T00:49:40.949Z,99.90
2023-12-09T00:52:08.933Z,99.90
2023-12-09T00:54:36.573Z,99.90
2023-12-09T00:57:04.770Z,99.90
2023-12-09T00:59:32.543Z,99.90
2023-12-09T01:02:00.408Z,99.90
2023-12-09T01:04:28.245Z,99.90
2023-12-09T01:06:57.150Z,99.90
2023-12-09T01:09:27.672Z,99.90
2023-12-09T01:11:55.587Z,99.90
2023-12-09T01:14:26.082Z,99.90
2023-12-09T01:16:54.016Z,99.90
2023-12-09T01:19:27.353Z,99.90
2023-12-09T01:21:58.080Z,99.90
2023-12-09T01:24:26.076Z,99.90
2023-12-09T01:26:53.787Z,99.90
2023-12-09T01:29:26.958Z,99.90
2023-12-09T01:31:54.759Z,99.90
2023-12-09T01:34:31.578Z,99.90
2023-12-09T01:37:04.130Z,99.90
2023-12-09T01:39:31.675Z,99.90
2023-12-09T01:41:59.342Z,99.90
2023-12-09T01:44:26.980Z,99.90
2023-12-09T01:46:55.172Z,99.90
2023-12-09T01:49:23.112Z,99.90
2023-12-09T01:51:51.605Z,99.90
2023-12-09T01:54:21.417Z,99.90
2023-12-09T01:56:49.379Z,99.90
2023-12-09T01:59:18.881Z,99.90
2023-12-09T02:01:47.814Z,99.90
2023-12-09T02:04:20.501Z,99.90
2023-12-09T02:06:48.533Z,99.90
2023-12-09T02:09:18.177Z,99.90
2023-12-09T02:12:27.316Z,99.90
2023-12-09T02:15:05.291Z,99.90
2023-12-09T02:17:43.885Z,99.90
2023-12-09T02:20:15.359Z,99.90
2023-12-09T02:22:43.127Z,99.90
2023-12-09T02:25:11.120Z,99.90
2023-12-09T02:27:47.207Z,99.90
2023-12-09T02:30:44.384Z,99.90
2023-12-09T02:33:14.554Z,99.90
2023-12-09T02:35:45.521Z,99.90
2023-12-09T02:38:15.031Z,99.90
2023-12-09T02:40:43.622Z,99.90
2023-12-09T02:43:11.580Z,99.90
2023-12-09T02:45:42.364Z,99.90
2023-12-09T02:48:10.557Z,99.90
2023-12-09T02:50:40.941Z,99.90
2023-12-09T02:53:09.153Z,99.90
2023-12-09T02:55:40.640Z,99.90
2023-12-09T02:58:16.414Z,99.90
2023-12-09T03:00:51.677Z,99.90
2023-12-09T03:03:23.902Z,99.90
2023-12-09T03:05:52.236Z,99.90
2023-12-09T03:08:33.128Z,99.90
2023-12-09T03:11:24.812Z,99.90
2023-12-09T03:13:53.905Z,99.90
2023-12-09T03:16:23.877Z,99.90
2023-12-09T03:18:56.582Z,99.90
2023-12-09T03:21:24.375Z,99.90
2023-12-09T03:23:57.261Z,99.90
2023-12-09T03:26:29.298Z,99.90
2023-12-09T03:28:57.222Z,99.90
2023-12-09T03:31:28.816Z,99.90
2023-12-09T03:34:02.352Z,99.90
2023-12-09T03:36:32.710Z,99.90
2023-12-09T03:39:03.680Z,99.90
2023-12-09T03:41:39.396Z,99.90
2023-12-09T03:44:20.636Z,99.90
2023-12-09T03:51:54.915Z,99.90
2023-12-09T03:54:31.715Z,99.90
2023-12-09T03:57:06.331Z,99.90
2023-12-09T03:59:34.207Z,99.90
2023-12-09T04:02:02.179Z,99.90
2023-12-09T04:04:33.193Z,99.90
2023-12-09T04:10:56.772Z,99.90
2023-12-09T04:13:48.076Z,99.90
2023-12-09T04:16:21.872Z,99.90
2023-12-09T04:18:49.795Z,99.90
2023-12-09T04:21:23.136Z,99.90
2023-12-09T04:23:58.101Z,99.90
2023-12-09T04:27:04.883Z,99.90
2023-12-09T04:33:47.424Z,99.90
2023-12-09T04:36:24.594Z,99.90
2023-12-09T04:39:18.287Z,99.90
2023-12-09T04:43:05.786Z,99.90
2023-12-09T04:45:34.389Z,99.90
2023-12-09T04:51:27.614Z,99.90
2023-12-09T04:53:55.431Z,99.90
2023-12-09T05:00:50.353Z,99.90
2023-12-09T05:03:19.512Z,99.90
2023-12-09T05:05:50.355Z,99.90
2023-12-09T05:08:33.398Z,99.90
2023-12-09T05:11:14.819Z,99.90
2023-12-09T05:15:24.121Z,99.90
2023-12-09T05:17:58.334Z,99.90
2023-12-09T05:20:52.949Z,99.90
2023-12-09T05:23:59.914Z,99.90
2023-12-09T05:27:03.161Z,99.90
2023-12-09T05:32:40.918Z,99.90
2023-12-09T05:35:19.485Z,99.90
2023-12-09T05:38:08.866Z,99.90
2023-12-09T05:40:49.620Z,99.90
2023-12-09T05:43:30.275Z,99.90
2023-12-09T05:46:27.125Z,99.90
2023-12-09T05:49:11.366Z,99.90
2023-12-09T05:51:46.881Z,99.90
2023-12-09T05:54:45.081Z,99.90
2023-12-09T05:57:23.968Z,99.90
2023-12-09T06:00:03.871Z,99.90
2023-12-09T06:02:37.960Z,99.90
2023-12-09T06:05:14.034Z,99.90
2023-12-09T06:07:41.692Z,99.90
2023-12-09T06:10:09.650Z,99.90
2023-12-09T06:12:37.462Z,99.90
2023-12-09T06:15:07.067Z,99.90
2023-12-09T06:17:37.288Z,99.90
2023-12-09T06:20:08.378Z,99.90
2023-12-09T06:22:36.137Z,99.90
2023-12-09T06:25:44.721Z,99.90
2023-12-09T06:28:47.352Z,99.90
2023-12-09T06:31:13.110Z,99.90
2023-12-09T06:33:45.050Z,99.90
2023-12-09T06:36:20.734Z,99.90
2023-12-09T06:42:09.516Z,99.90
2023-12-09T06:44:41.772Z,99.90
2023-12-09T06:47:12.848Z,99.90
2023-12-09T06:49:40.750Z,99.90
2023-12-09T06:52:08.448Z,99.90
2023-12-09T06:54:36.467Z,99.90
2023-12-09T06:57:14.926Z,99.90
2023-12-09T06:59:42.691Z,99.90
2023-12-09T07:02:21.645Z,99.90
2023-12-09T07:04:49.687Z,99.90
2023-12-09T07:07:22.760Z,99.90
2023-12-09T07:09:56.501Z,99.90
2023-12-09T07:12:27.159Z,99.90
2023-12-09T07:14:55.284Z,99.90
2023-12-09T07:17:25.441Z,99.90
2023-12-09T07:19:54.221Z,99.90
2023-12-09T07:22:22.797Z,99.90
2023-12-09T07:24:53.387Z,99.90
2023-12-09T07:27:21.042Z,99.90
2023-12-09T07:29:48.651Z,99.90
2023-12-09T07:32:17.561Z,99.90
2023-12-09T07:34:46.868Z,99.90
2023-12-09T07:37:16.131Z,99.90
2023-12-09T07:39:43.872Z,99.90
2023-12-09T07:42:11.659Z,99.90
2023-12-09T07:44:39.333Z,99.90
2023-12-09T07:47:06.932Z,99.90
2023-12-09T07:49:34.758Z,99.90
2023-12-09T07:52:06.963Z,99.90
2023-12-09T07:54:49.930Z,99.90
2023-12-09T07:57:18.587Z,99.90
2023-12-09T07:59:46.188Z,99.90
2023-12-09T08:02:23.552Z,99.90
2023-12-09T08:05:03.329Z,99.90
2023-12-09T08:07:45.782Z,99.90
2023-12-09T08:10:22.683Z,99.90
2023-12-09T08:13:01.310Z,99.90
2023-12-09T08:15:29.095Z,99.90
2023-12-09T08:17:56.877Z,99.90
2023-12-09T08:20:25.107Z,99.90
2023-12-09T08:22:52.715Z,99.90
2023-12-09T08:25:20.305Z,99.90
2023-12-09T08:27:47.907Z,99.90
2023-12-09T08:30:15.657Z,99.90
2023-12-09T08:32:43.670Z,99.90
2023-12-09T08:35:12.249Z,99.90
2023-12-09T08:37:40.544Z,99.90
2023-12-09T08:40:14.380Z,98.70
2023-12-09T08:42:45.796Z,98.50
2023-12-09T08:45:17.102Z,98.50
2023-12-09T08:47:45.763Z,99.00
2023-12-09T08:52:45.523Z,97.60
2023-12-09T08:55:13.178Z,97.60
2023-12-09T08:57:40.838Z,97.00
2023-12-09T09:00:09.818Z,96.70
2023-12-09T09:02:38.097Z,96.10
2023-12-09T09:05:06.282Z,94.30
2023-12-09T09:07:37.761Z,92.60
2023-12-09T09:10:05.845Z,92.70
2023-12-09T09:12:33.520Z,93.90
2023-12-09T09:15:04.628Z,94.10
2023-12-09T09:17:36.656Z,94.40
2023-12-09T09:20:07.057Z,94.20
2023-12-09T09:22:35.472Z,92.00
2023-12-09T09:25:03.750Z,91.40
2023-12-09T09:27:31.979Z,93.40
2023-12-09T09:29:59.747Z,94.70
2023-12-09T09:32:31.044Z,94.20
2023-12-09T09:34:58.990Z,92.80
2023-12-09T09:37:26.814Z,90.00
2023-12-09T09:39:54.645Z,87.10
2023-12-09T09:42:34.373Z,87.30
2023-12-09T09:45:11.338Z,84.50
2023-12-09T09:47:39.259Z,81.20
2023-12-09T09:50:09.777Z,84.30
2023-12-09T09:52:38.769Z,85.40
2023-12-09T09:55:09.694Z,87.30
2023-12-09T09:57:38.462Z,88.10
2023-12-09T10:00:16.026Z,89.20
2023-12-09T10:02:47.735Z,88.40
2023-12-09T10:05:17.737Z,88.80
2023-12-09T10:07:46.124Z,88.80
2023-12-09T10:10:15.268Z,87.30
2023-12-09T10:12:44.137Z,91.10
2023-12-09T10:15:17.264Z,91.90
2023-12-09T10:17:45.381Z,92.90
2023-12-09T10:20:13.365Z,91.80
2023-12-09T10:22:41.654Z,92.90
2023-12-09T10:25:09.553Z,93.80
2023-12-09T10:27:37.229Z,92.90
2023-12-09T10:30:07.081Z,93.70
2023-12-09T10:32:35.218Z,93.10
2023-12-09T10:35:05.436Z,93.00
2023-12-09T10:37:34.268Z,93.40
2023-12-09T10:40:07.964Z,92.80
2023-12-09T10:42:39.021Z,92.90
2023-12-09T10:45:09.337Z,93.90
2023-12-09T10:47:37.318Z,94.00
2023-12-09T10:50:05.996Z,94.30
2023-12-09T10:52:35.875Z,94.30
2023-12-09T10:55:05.456Z,94.70
2023-12-09T10:57:34.900Z,92.80
2023-12-09T11:00:11.182Z,93.10
2023-12-09T11:02:42.273Z,93.20
2023-12-09T11:05:12.793Z,92.30
2023-12-09T11:07:41.601Z,92.00
2023-12-09T11:10:12.566Z,91.00
2023-12-09T11:12:42.230Z,90.20
2023-12-09T11:15:17.143Z,89.80
2023-12-09T11:17:46.401Z,90.90
2023-12-09T11:20:20.752Z,91.50
2023-12-09T11:22:49.207Z,93.80
2023-12-09T11:25:27.085Z,94.40
2023-12-09T11:27:55.067Z,94.90
2023-12-09T11:30:37.987Z,95.20
2023-12-09T11:33:06.533Z,94.80
2023-12-09T11:35:38.657Z,94.90
2023-12-09T11:38:08.791Z,95.10
2023-12-09T11:40:38.973Z,95.30
2023-12-09T11:43:09.569Z,95.80
2023-12-09T11:45:40.365Z,96.40
2023-12-09T11:48:10.192Z,96.00
2023-12-09T11:50:40.710Z,96.40
2023-12-09T11:53:08.336Z,96.60
2023-12-09T11:55:36.048Z,96.10
2023-12-09T11:58:04.951Z,96.40
2023-12-09T12:00:32.567Z,96.10
2023-12-09T12:03:00.912Z,96.60
2023-12-09T12:06:07.548Z,96.70
2023-12-09T12:08:35.382Z,96.40
2023-12-09T12:11:04.635Z,96.40
2023-12-09T12:13:33.480Z,96.60
2023-12-09T12:16:04.920Z,96.90
2023-12-09T12:18:34.009Z,96.70
2023-12-09T12:21:02.317Z,96.20
2023-12-09T12:23:33.050Z,96.20
2023-12-09T12:26:22.418Z,96.00
2023-12-09T12:28:52.956Z,96.50
2023-12-09T12:31:21.953Z,96.20
2023-12-09T12:33:49.811Z,95.70
2023-12-09T12:36:36.818Z,96.30
2023-12-09T12:39:07.340Z,95.70
2023-12-09T12:41:35.035Z,95.70
2023-12-09T12:44:02.781Z,95.70
2023-12-09T12:46:50.688Z,95.20
2023-12-09T12:49:18.407Z,95.60
2023-12-09T12:51:46.268Z,96.50
2023-12-09T12:54:14.109Z,98.70
2023-12-09T12:56:43.023Z,99.90
2023-12-09T12:59:13.859Z,99.90
2023-12-09T13:01:41.479Z,99.90
2023-12-09T13:04:10.117Z,99.90
2023-12-09T13:06:37.827Z,99.90
2023-12-09T13:09:05.863Z,99.90
2023-12-09T13:11:33.677Z,99.90
2023-12-09T13:14:01.451Z,99.90
2023-12-09T13:16:29.278Z,99.90
2023-12-09T13:18:57.036Z,99.90
2023-12-09T13:21:24.740Z,99.90
2023-12-09T13:23:52.951Z,99.90
2023-12-09T13:26:20.918Z,99.90
2023-12-09T13:28:48.565Z,99.90
2023-12-09T13:31:20.030Z,99.90
2023-12-09T13:33:48.467Z,99.90
2023-12-09T13:36:17.745Z,99.90
2023-12-09T13:38:45.791Z,99.90
2023-12-09T13:41:14.644Z,99.90
2023-12-09T13:43:43.956Z,99.90
2023-12-09T13:46:11.707Z,99.90
2023-12-09T13:48:42.370Z,99.90
2023-12-09T13:51:13.223Z,99.90
2023-12-09T14:03:12.679Z,99.90
2023-12-09T14:05:40.833Z,99.90
2023-12-09T14:08:08.829Z,99.90
2023-12-09T14:10:36.661Z,99.90
2023-12-09T14:13:04.336Z,99.90
2023-12-09T14:15:33.270Z,99.90
2023-12-09T14:18:01.187Z,99.90
2023-12-09T14:20:29.620Z,99.90
2023-12-09T14:22:58.071Z,99.90
2023-12-09T14:25:44.711Z,99.90
2023-12-09T14:28:12.461Z,99.90
2023-12-09T14:30:40.172Z,99.90
2023-12-09T14:33:07.930Z,99.90
2023-12-09T14:35:35.919Z,99.90
2023-12-09T14:38:04.590Z,99.90
2023-12-09T14:40:32.466Z,99.90
2023-12-09T14:43:07.687Z,99.90
2023-12-09T14:45:37.565Z,99.90
2023-12-09T14:48:08.140Z,99.90
2023-12-09T14:50:36.508Z,99.90
2023-12-09T14:53:04.220Z,99.90
2023-12-09T14:55:55.327Z,99.90
2023-12-09T14:58:23.045Z,99.90
2023-12-09T15:00:51.432Z,99.90
2023-12-09T15:03:19.464Z,99.90
2023-12-09T15:05:50.788Z,99.90
2023-12-09T15:08:23.564Z,99.90
2023-12-09T15:10:53.853Z,99.90
2023-12-09T15:13:24.684Z,99.90
2023-12-09T15:15:52.990Z,99.90
2023-12-09T15:18:23.251Z,99.90
2023-12-09T15:20:52.391Z,99.90
2023-12-09T15:23:23.011Z,99.90
2023-12-09T15:25:53.890Z,99.90
2023-12-09T15:28:22.103Z,99.90
2023-12-09T15:30:51.584Z,99.90
2023-12-09T15:33:19.950Z,99.90
2023-12-09T15:35:49.023Z,99.90
2023-12-09T15:38:16.690Z,99.90
2023-12-09T15:40:45.581Z,99.90
2023-12-09T15:43:14.356Z,99.90
2023-12-09T15:45:43.785Z,99.90
2023-12-09T15:48:15.385Z,99.90
2023-12-09T15:50:46.188Z,99.90
2023-12-09T15:53:14.081Z,99.90
2023-12-09T15:55:41.826Z,99.90
2023-12-09T15:58:09.801Z,99.90
2023-12-09T16:00:42.310Z,99.90
2023-12-09T16:03:16.917Z,99.90
2023-12-09T16:05:44.986Z,99.90
2023-12-09T16:08:12.860Z,99.90
2023-12-09T16:10:40.767Z,99.90
2023-12-09T16:13:09.284Z,99.90
2023-12-09T16:15:37.717Z,99.90
2023-12-09T16:18:08.041Z,99.90
2023-12-09T16:20:35.759Z,99.90
2023-12-09T16:23:03.404Z,99.90
2023-12-09T16:25:31.283Z,99.90
2023-12-09T16:27:59.106Z,99.90
2023-12-09T16:30:26.786Z,99.90
2023-12-09T16:32:54.556Z,99.90
2023-12-09T16:35:22.476Z,99.90
2023-12-09T16:37:50.572Z,99.90
2023-12-09T16:40:18.284Z,99.90
2023-12-09T16:42:46.009Z,99.90
2023-12-09T16:45:15.146Z,99.90
2023-12-09T16:47:46.333Z,99.90
2023-12-09T16:50:15.111Z,99.90
2023-12-09T16:52:44.062Z,99.90
2023-12-09T16:55:11.909Z,99.90
2023-12-09T16:57:40.156Z,99.90
2023-12-09T17:00:08.568Z,99.90
2023-12-09T17:03:24.416Z,99.90
2023-12-09T17:06:16.124Z,99.90
2023-12-09T17:08:43.901Z,99.90
2023-12-09T17:11:11.754Z,99.90
2023-12-09T17:13:39.372Z,99.90
2023-12-09T17:16:07.643Z,99.90
2023-12-09T17:18:35.364Z,99.90
2023-12-09T17:21:03.856Z,99.90
2023-12-09T17:23:37.794Z,99.90
2023-12-09T17:26:07.943Z,99.90
2023-12-09T17:28:38.129Z,99.90
2023-12-09T17:31:07.083Z,99.90
2023-12-09T17:33:35.021Z,99.90
2023-12-09T17:36:02.894Z,99.90
2023-12-09T17:38:30.897Z,99.90
2023-12-09T17:40:59.034Z,99.90
2023-12-09T17:43:27.438Z,99.90
2023-12-09T17:45:55.477Z,99.90
2023-12-09T17:48:25.172Z,99.90
2023-12-09T17:50:56.167Z,99.90
2023-12-09T17:53:26.666Z,99.90
2023-12-09T17:56:03.970Z,99.90
2023-12-09T17:58:31.682Z,99.90
2023-12-09T18:01:03.276Z,99.90
2023-12-09T18:03:31.061Z,99.90
2023-12-09T18:06:11.678Z,99.90
2023-12-09T18:08:39.279Z,99.90
2023-12-09T18:11:09.722Z,99.90
2023-12-09T18:13:40.688Z,99.90
2023-12-09T18:16:10.022Z,99.90
2023-12-09T18:18:38.144Z,99.90
2023-12-09T18:21:06.093Z,99.90
2023-12-09T18:23:33.647Z,99.90
2023-12-09T18:26:03.950Z,99.90
2023-12-09T18:28:38.912Z,99.90
2023-12-09T18:31:07.464Z,99.90
2023-12-09T18:33:38.410Z,99.90
2023-12-09T18:36:07.850Z,99.90
2023-12-09T18:38:35.462Z,99.90
2023-12-09T18:41:04.366Z,99.90
2023-12-09T18:43:33.932Z,99.90
2023-12-09T18:46:05.215Z,99.90
2023-12-09T18:48:33.246Z,99.90
2023-12-09T18:51:01.782Z,99.90
2023-12-09T18:53:30.563Z,99.90
2023-12-09T18:55:58.452Z,99.90
2023-12-09T18:58:28.034Z,99.90
2023-12-09T19:01:04.801Z,99.90
2023-12-09T19:03:38.281Z,99.90
2023-12-09T19:06:06.441Z,99.90
2023-12-09T19:08:34.061Z,99.90
2023-12-09T19:11:01.732Z,99.90
2023-12-09T19:13:29.459Z,99.90
2023-12-09T19:15:57.481Z,99.90
2023-12-09T19:18:25.296Z,99.90
2023-12-09T19:20:52.977Z,99.90
2023-12-09T19:23:20.639Z,99.90
2023-12-09T19:25:48.314Z,99.90
2023-12-09T19:28:16.361Z,99.90
2023-12-09T19:30:44.231Z,99.90
2023-12-09T19:33:12.031Z,99.90
2023-12-09T19:35:39.764Z,99.90
2023-12-09T19:38:07.691Z,99.90
2023-12-09T19:40:39.208Z,99.90
2023-12-09T19:43:12.793Z,99.90
2023-12-09T19:46:00.355Z,99.90
2023-12-09T19:48:39.610Z,99.90
2023-12-09T19:51:07.987Z,99.90
2023-12-09T19:53:46.144Z,99.90
2023-12-09T19:56:19.805Z,99.90
2023-12-09T19:58:50.787Z,99.90
2023-12-09T20:01:24.272Z,99.90
2023-12-09T20:03:53.197Z,99.90
2023-12-09T20:06:21.245Z,99.90
2023-12-09T20:09:03.217Z,99.90
2023-12-09T20:14:27.262Z,99.90
2023-12-09T20:17:01.137Z,99.90
2023-12-09T20:19:56.509Z,99.90
2023-12-09T20:22:28.176Z,99.90
2023-12-09T20:25:02.191Z,99.90
2023-12-09T20:27:32.040Z,99.90
2023-12-09T20:30:11.064Z,99.90
2023-12-09T20:32:55.994Z,99.90
2023-12-09T20:35:39.722Z,99.90
2023-12-09T20:38:33.844Z,99.90
2023-12-09T20:41:15.351Z,99.90
2023-12-09T20:46:44.796Z,99.90
2023-12-09T20:49:22.405Z,99.90
2023-12-09T20:51:53.635Z,99.90
2023-12-09T20:54:24.973Z,99.90
2023-12-09T20:57:05.046Z,99.90
2023-12-09T20:59:33.046Z,99.90
2023-12-09T21:02:00.871Z,99.90
2023-12-09T21:04:28.498Z,99.90
2023-12-09T21:06:56.324Z,99.90
2023-12-09T21:09:24.413Z,99.90
2023-12-09T21:11:53.475Z,99.90
2023-12-09T21:14:21.722Z,99.90
2023-12-09T21:16:52.655Z,99.90
2023-12-09T21:19:20.647Z,99.90
2023-12-09T21:21:54.640Z,99.90
2023-12-09T21:24:22.621Z,99.90
2023-12-09T21:26:50.241Z,99.90
2023-12-09T21:29:17.996Z,99.90
2023-12-09T21:31:48.415Z,99.90
2023-12-09T21:34:18.288Z,99.90
2023-12-09T21:36:46.602Z,99.90
2023-12-09T21:39:17.719Z,99.90
2023-12-09T21:41:48.234Z,99.90
2023-12-09T21:44:15.845Z,99.90
2023-12-09T21:46:46.518Z,99.90
2023-12-09T21:49:17.382Z,99.90
2023-12-09T21:51:48.278Z,99.90
2023-12-09T21:54:19.121Z,99.90
2023-12-09T21:56:57.703Z,99.90
2023-12-09T21:59:47.536Z,99.90
2023-12-09T22:02:33.673Z,99.90
2023-12-09T22:05:30.948Z,99.90
2023-12-09T22:08:09.334Z,99.90
2023-12-09T22:10:56.449Z,99.90
2023-12-09T22:17:23.503Z,99.90
2023-12-09T22:20:37.637Z,99.90
2023-12-09T22:23:09.741Z,99.90
2023-12-09T22:25:43.884Z,99.90
2023-12-09T22:28:24.379Z,99.90
2023-12-09T22:30:55.078Z,99.90
2023-12-09T22:52:01.712Z,99.90
